createdAt,value
2023-03-07T00:01:58.612Z,15.45
2023-03-07T00:04:53.053Z,15.25
2023-03-07T00:07:44.437Z,16.10
2023-03-07T00:10:35.894Z,16.12
2023-03-07T00:13:28.742Z,15.68
2023-03-07T00:16:22.591Z,15.80
2023-03-07T00:19:14.057Z,14.78
2023-03-07T00:22:05.784Z,14.47
2023-03-07T00:24:57.161Z,15.15
2023-03-07T00:27:48.873Z,15.83
2023-03-07T00:30:40.092Z,18.30
2023-03-07T00:33:31.310Z,18.37
2023-03-07T00:36:24.238Z,14.85
2023-03-07T00:39:23.010Z,20.55
2023-03-07T00:42:14.364Z,17.55
2023-03-07T00:45:06.207Z,15.35
2023-03-07T00:48:00.735Z,17.67
2023-03-07T00:50:52.620Z,16.62
2023-03-07T00:53:45.318Z,18.12
2023-03-07T00:56:36.567Z,18.42
2023-03-07T00:59:28.312Z,18.10
2023-03-07T01:02:19.806Z,17.23
2023-03-07T01:05:11.931Z,20.57
2023-03-07T01:08:03.618Z,17.07
2023-03-07T01:10:56.318Z,16.57
2023-03-07T01:13:47.737Z,18.15
2023-03-07T01:16:40.924Z,18.48
2023-03-07T01:19:32.949Z,17.80
2023-03-07T01:22:29.451Z,19.07
2023-03-07T01:25:22.217Z,17.20
2023-03-07T01:28:15.852Z,18.27
2023-03-07T01:31:07.455Z,18.50
2023-03-07T01:33:59.358Z,18.10
2023-03-07T01:36:51.252Z,16.60
2023-03-07T01:39:43.220Z,17.23
2023-03-07T01:42:38.010Z,16.82
2023-03-07T01:46:04.963Z,20.15
2023-03-07T01:48:59.461Z,18.67
2023-03-07T01:51:56.169Z,15.58
2023-03-07T01:54:51.716Z,18.60
2023-03-07T01:57:47.457Z,18.07
2023-03-07T02:00:41.492Z,17.32
2023-03-07T02:03:36.183Z,15.18
2023-03-07T02:06:31.287Z,18.90
2023-03-07T02:09:25.718Z,19.75
2023-03-07T02:12:17.837Z,19.67
2023-03-07T02:15:11.750Z,16.80
2023-03-07T02:18:06.134Z,13.70
2023-03-07T02:21:01.237Z,18.45
2023-03-07T02:23:57.352Z,16.55
2023-03-07T02:26:50.664Z,16.60
2023-03-07T02:29:45.662Z,19.05
2023-03-07T02:32:37.185Z,17.73
2023-03-07T02:35:29.453Z,19.05
2023-03-07T02:41:03.928Z,21.00
2023-03-07T02:43:57.482Z,15.28
2023-03-07T02:46:49.279Z,16.17
2023-03-07T02:49:41.209Z,17.87
2023-03-07T02:52:32.689Z,16.97
2023-03-07T02:55:23.959Z,14.73
2023-03-07T02:58:17.062Z,14.50
2023-03-07T03:01:08.822Z,15.65
2023-03-07T03:04:05.270Z,16.80
2023-03-07T03:07:00.880Z,16.32
2023-03-07T03:09:55.263Z,17.98
2023-03-07T03:12:47.504Z,17.32
2023-03-07T03:15:39.318Z,18.10
2023-03-07T03:18:31.881Z,16.17
2023-03-07T03:21:23.333Z,18.10
2023-03-07T03:24:15.503Z,16.32
2023-03-07T03:27:09.221Z,16.73
2023-03-07T03:30:01.200Z,16.32
2023-03-07T03:32:54.052Z,18.98
2023-03-07T03:35:45.487Z,16.05
2023-03-07T03:38:41.733Z,17.20
2023-03-07T03:41:33.436Z,14.98
2023-03-07T03:44:25.256Z,17.15
2023-03-07T03:47:17.184Z,16.75
2023-03-07T03:50:10.417Z,16.80
2023-03-07T03:53:03.753Z,15.63
2023-03-07T03:55:56.932Z,16.67
2023-03-07T03:58:51.695Z,14.68
2023-03-07T04:01:44.009Z,12.63
2023-03-07T04:04:36.820Z,14.13
2023-03-07T04:07:29.794Z,13.32
2023-03-07T04:10:21.291Z,14.50
2023-03-07T04:13:12.585Z,15.90
2023-03-07T04:16:04.307Z,16.12
2023-03-07T04:18:56.692Z,16.42
2023-03-07T04:21:48.102Z,17.07
2023-03-07T04:24:40.727Z,15.48
2023-03-07T04:27:34.118Z,16.45
2023-03-07T04:30:33.889Z,13.70
2023-03-07T04:33:27.497Z,18.60
2023-03-07T04:36:26.705Z,16.65
2023-03-07T04:39:18.554Z,16.40
2023-03-07T04:42:11.048Z,20.75
2023-03-07T04:45:08.670Z,17.48
2023-03-07T04:48:03.314Z,18.90
2023-03-07T04:50:55.681Z,17.73
2023-03-07T04:53:48.645Z,17.92
2023-03-07T04:56:40.448Z,17.77
2023-03-07T04:59:33.389Z,16.93
2023-03-07T05:02:24.939Z,18.77
2023-03-07T05:05:17.146Z,18.85
2023-03-07T05:08:10.846Z,17.15
2023-03-07T05:11:02.278Z,20.23
2023-03-07T05:14:07.434Z,20.35
2023-03-07T05:17:01.610Z,20.25
2023-03-07T05:19:55.697Z,18.98
2023-03-07T05:22:47.964Z,20.57
2023-03-07T05:25:41.569Z,18.70
2023-03-07T05:28:34.292Z,18.15
2023-03-07T05:31:26.557Z,21.70
2023-03-07T05:34:18.538Z,19.48
2023-03-07T05:37:10.639Z,20.88
2023-03-07T05:40:02.737Z,18.17
2023-03-07T05:42:54.095Z,17.50
2023-03-07T05:45:45.667Z,16.93
2023-03-07T05:48:37.791Z,20.50
2023-03-07T05:51:29.530Z,21.52
2023-03-07T05:54:24.514Z,19.73
2023-03-07T05:57:15.948Z,15.98
2023-03-07T06:00:14.951Z,19.15
2023-03-07T06:03:08.021Z,19.25
2023-03-07T06:06:01.726Z,18.25
2023-03-07T06:08:53.111Z,20.08
2023-03-07T06:14:33.372Z,17.80
2023-03-07T06:17:25.389Z,21.07
2023-03-07T06:20:19.773Z,18.90
2023-03-07T06:23:13.323Z,17.15
2023-03-07T06:26:07.686Z,16.02
2023-03-07T06:28:58.699Z,17.60
2023-03-07T06:31:51.386Z,19.35
2023-03-07T06:34:42.603Z,19.20
2023-03-07T06:37:35.168Z,18.57
2023-03-07T06:40:26.712Z,21.48
2023-03-07T06:43:18.387Z,19.30
2023-03-07T06:46:10.322Z,18.67
2023-03-07T06:49:03.751Z,18.92
2023-03-07T06:51:56.051Z,18.90
2023-03-07T06:54:47.616Z,19.65
2023-03-07T06:57:39.048Z,20.40
2023-03-07T07:00:31.406Z,21.23
2023-03-07T07:03:26.030Z,19.25
2023-03-07T07:06:17.498Z,18.92
2023-03-07T07:09:09.145Z,19.20
2023-03-07T07:12:02.082Z,19.77
2023-03-07T07:14:57.572Z,21.20
2023-03-07T07:17:49.711Z,22.42
2023-03-07T07:20:42.111Z,18.35
2023-03-07T07:23:34.507Z,18.05
2023-03-07T07:26:27.546Z,22.07
2023-03-07T07:29:21.357Z,22.95
2023-03-07T07:32:13.422Z,21.57
2023-03-07T07:35:05.734Z,21.00
2023-03-07T07:37:57.775Z,19.30
2023-03-07T07:40:51.447Z,19.95
2023-03-07T07:43:43.232Z,21.25
2023-03-07T07:46:36.789Z,22.73
2023-03-07T07:49:30.586Z,22.58
2023-03-07T07:52:22.661Z,27.02
2023-03-07T07:55:14.756Z,26.68
2023-03-07T07:58:17.802Z,22.22
2023-03-07T08:01:18.145Z,21.82
2023-03-07T08:04:09.730Z,19.55
2023-03-07T08:07:03.143Z,17.80
2023-03-07T08:09:55.510Z,19.60
2023-03-07T08:12:48.593Z,20.05
2023-03-07T08:15:39.949Z,17.87
2023-03-07T08:18:31.623Z,20.20
2023-03-07T08:21:25.302Z,19.07
2023-03-07T08:24:16.502Z,19.32
2023-03-07T08:27:09.698Z,21.93
2023-03-07T08:30:03.016Z,20.43
2023-03-07T08:32:58.388Z,18.85
2023-03-07T08:35:51.112Z,17.73
2023-03-07T08:38:42.504Z,22.02
2023-03-07T08:41:36.311Z,26.30
2023-03-07T08:44:28.117Z,19.50
2023-03-07T08:47:19.332Z,18.57
2023-03-07T08:50:12.914Z,17.50
2023-03-07T08:53:05.162Z,20.52
2023-03-07T08:56:01.656Z,19.30
2023-03-07T08:58:59.998Z,17.30
2023-03-07T09:01:52.269Z,20.97
2023-03-07T09:04:44.047Z,18.70
2023-03-07T09:07:35.504Z,18.65
2023-03-07T09:10:28.664Z,21.55
2023-03-07T09:13:33.038Z,19.07
2023-03-07T09:16:24.350Z,15.68
2023-03-07T09:19:17.291Z,20.35
2023-03-07T09:22:14.537Z,19.30
2023-03-07T09:25:07.961Z,20.02
2023-03-07T09:27:59.926Z,20.40
2023-03-07T09:30:53.037Z,17.98
2023-03-07T09:33:46.632Z,17.20
2023-03-07T09:36:38.143Z,20.92
2023-03-07T09:39:29.798Z,16.67
2023-03-07T09:42:33.003Z,13.75
2023-03-07T09:45:33.293Z,15.45
2023-03-07T09:48:56.222Z,17.30
2023-03-07T09:51:53.641Z,12.98
2023-03-07T09:54:53.920Z,13.43
2023-03-07T09:57:50.675Z,16.82
2023-03-07T10:00:45.899Z,14.47
2023-03-07T10:03:41.125Z,13.85
2023-03-07T10:06:37.431Z,13.05
2023-03-07T10:09:32.102Z,16.62
2023-03-07T10:12:48.559Z,12.05
2023-03-07T10:15:46.680Z,11.73
2023-03-07T10:18:45.132Z,13.78
2023-03-07T10:25:02.666Z,16.20
2023-03-07T10:27:56.858Z,17.23
2023-03-07T10:30:51.265Z,13.30
2023-03-07T10:33:44.672Z,14.18
2023-03-07T10:36:39.847Z,15.05
2023-03-07T10:42:25.014Z,15.00
2023-03-07T10:45:17.293Z,14.33
2023-03-07T10:48:12.550Z,14.03
2023-03-07T10:51:09.512Z,17.52
2023-03-07T10:57:23.742Z,16.57
2023-03-07T11:00:22.331Z,14.68
2023-03-07T11:07:02.500Z,15.32
2023-03-07T11:09:56.268Z,14.53
2023-03-07T11:12:48.475Z,19.02
2023-03-07T11:15:41.354Z,14.23
2023-03-07T11:18:35.338Z,16.00
2023-03-07T11:21:33.137Z,15.00
2023-03-07T11:24:28.793Z,16.17
2023-03-07T11:27:28.593Z,14.43
2023-03-07T11:30:26.954Z,17.52
2023-03-07T11:33:21.525Z,12.75
2023-03-07T11:36:16.985Z,12.75
2023-03-07T11:39:18.482Z,11.80
2023-03-07T11:42:14.185Z,13.68
2023-03-07T11:45:20.691Z,15.18
2023-03-07T11:48:20.384Z,11.48
2023-03-07T11:51:21.206Z,14.03
2023-03-07T11:54:28.061Z,14.93
2023-03-07T11:57:33.782Z,15.25
2023-03-07T12:00:33.464Z,13.72
2023-03-07T12:03:49.152Z,11.55
2023-03-07T12:06:44.120Z,13.60
2023-03-07T12:09:52.589Z,12.90
2023-03-07T12:15:43.620Z,12.18
2023-03-07T12:18:53.683Z,10.55
2023-03-07T12:21:56.429Z,13.90
2023-03-07T12:24:52.653Z,13.00
2023-03-07T12:30:40.157Z,14.93
2023-03-07T12:33:56.574Z,14.55
2023-03-07T12:36:51.577Z,17.37
2023-03-07T12:39:49.056Z,14.58
2023-03-07T12:42:51.097Z,12.15
2023-03-07T12:45:56.444Z,13.13
2023-03-07T12:48:55.943Z,11.78
2023-03-07T12:52:01.419Z,12.47
2023-03-07T12:54:57.202Z,13.95
2023-03-07T12:57:55.479Z,10.43
2023-03-07T13:00:55.464Z,14.87
2023-03-07T13:04:01.877Z,9.58
2023-03-07T13:06:54.953Z,6.12
2023-03-07T13:09:48.683Z,3.52
2023-03-07T13:18:47.433Z,8.68
2023-03-07T13:21:38.929Z,9.83
2023-03-07T13:24:38.505Z,11.05
2023-03-07T13:27:51.679Z,9.83
2023-03-07T13:31:12.193Z,9.53
2023-03-07T13:34:53.000Z,11.30
2023-03-07T13:37:57.974Z,12.98
2023-03-07T13:41:01.117Z,8.95
2023-03-07T13:44:38.138Z,8.05
2023-03-07T13:47:46.429Z,10.13
2023-03-07T13:50:45.230Z,9.90
2023-03-07T13:53:40.638Z,6.83
2023-03-07T13:56:46.952Z,11.78
2023-03-07T13:59:51.591Z,10.75
2023-03-07T14:02:44.130Z,12.43
2023-03-07T14:05:40.182Z,11.80
2023-03-07T14:08:36.845Z,10.63
2023-03-07T14:11:42.731Z,12.23
2023-03-07T14:14:52.856Z,10.90
2023-03-07T14:17:55.130Z,15.00
2023-03-07T14:20:54.089Z,12.73
2023-03-07T14:24:15.847Z,15.53
2023-03-07T14:27:13.428Z,13.72
2023-03-07T14:30:16.995Z,20.20
2023-03-07T14:33:10.390Z,12.03
2023-03-07T14:36:02.708Z,16.87
2023-03-07T14:39:17.224Z,14.95
2023-03-07T14:42:16.647Z,14.28
2023-03-07T14:45:35.435Z,13.10
2023-03-07T14:48:38.733Z,14.50
2023-03-07T14:51:33.572Z,10.32
2023-03-07T14:54:29.864Z,10.10
2023-03-07T14:57:35.144Z,8.73
2023-03-07T15:00:58.227Z,7.65
2023-03-07T15:04:04.062Z,9.03
2023-03-07T15:06:59.131Z,6.60
2023-03-07T15:09:50.325Z,7.67
2023-03-07T15:12:42.568Z,8.65
2023-03-07T15:15:37.446Z,8.93
2023-03-07T15:21:26.714Z,9.13
2023-03-07T15:24:32.543Z,11.22
2023-03-07T15:27:27.703Z,11.22
2023-03-07T15:30:26.257Z,13.10
2023-03-07T15:33:26.372Z,12.13
2023-03-07T15:36:24.245Z,13.03
2023-03-07T15:42:10.175Z,15.90
2023-03-07T15:45:03.858Z,16.10
2023-03-07T15:47:56.122Z,16.37
2023-03-07T15:50:55.899Z,14.95
2023-03-07T15:53:49.730Z,18.07
2023-03-07T15:56:41.749Z,14.83
2023-03-07T15:59:36.282Z,16.12
2023-03-07T16:02:47.138Z,13.08
2023-03-07T16:05:42.620Z,16.27
2023-03-07T16:08:36.681Z,14.90
2023-03-07T16:11:28.209Z,13.78
2023-03-07T16:14:25.817Z,10.05
2023-03-07T16:17:20.981Z,15.13
2023-03-07T16:20:20.230Z,15.63
2023-03-07T16:23:15.254Z,12.23
2023-03-07T16:26:07.402Z,7.08
2023-03-07T16:29:00.453Z,12.07
2023-03-07T16:31:54.344Z,10.70
2023-03-07T16:34:46.316Z,10.13
2023-03-07T16:37:37.564Z,14.05
2023-03-07T16:40:32.222Z,13.72
2023-03-07T16:43:35.188Z,12.88
2023-03-07T16:46:27.752Z,8.75
2023-03-07T16:49:19.917Z,8.43
2023-03-07T16:52:14.842Z,6.00
2023-03-07T16:55:07.794Z,6.17
2023-03-07T16:58:08.475Z,5.70
2023-03-07T17:01:07.510Z,7.90
2023-03-07T17:04:00.734Z,7.37
2023-03-07T17:07:04.044Z,5.97
2023-03-07T17:09:47.845Z,3.92
2023-03-07T17:12:40.212Z,5.90
2023-03-07T17:15:32.410Z,5.78
2023-03-07T17:18:27.056Z,3.37
2023-03-07T17:21:22.191Z,3.42
2023-03-07T17:24:14.024Z,4.17
2023-03-07T17:27:06.566Z,5.28
2023-03-07T17:29:58.127Z,3.40
2023-03-07T17:33:08.467Z,6.05
2023-03-07T17:36:01.307Z,7.53
2023-03-07T17:38:53.350Z,6.67
2023-03-07T17:41:44.883Z,7.37
2023-03-07T17:44:37.569Z,4.63
2023-03-07T17:47:29.060Z,7.08
2023-03-07T17:50:22.742Z,6.05
2023-03-07T17:53:15.112Z,8.10
2023-03-07T17:56:13.290Z,7.00
2023-03-07T17:59:05.663Z,6.28
2023-03-07T18:01:58.132Z,7.33
2023-03-07T18:04:51.814Z,6.50
2023-03-07T18:07:43.720Z,5.20
2023-03-07T18:10:36.906Z,5.40
2023-03-07T18:13:30.494Z,5.15
2023-03-07T18:16:22.201Z,4.45
2023-03-07T18:19:25.692Z,5.95
2023-03-07T18:22:08.525Z,6.55
2023-03-07T18:25:00.451Z,5.85
2023-03-07T18:27:51.936Z,7.03
2023-03-07T18:30:43.652Z,6.05
2023-03-07T18:33:36.864Z,6.62
2023-03-07T18:36:31.668Z,5.65
2023-03-07T18:39:25.831Z,7.40
2023-03-07T18:42:18.747Z,6.92
2023-03-07T18:45:13.087Z,6.92
2023-03-07T18:48:05.467Z,6.22
2023-03-07T18:51:01.224Z,6.22
2023-03-07T18:53:53.347Z,7.05
2023-03-07T18:56:47.826Z,7.75
2023-03-07T18:59:39.553Z,8.83
2023-03-07T19:02:30.973Z,9.80
2023-03-07T19:05:27.716Z,9.33
2023-03-07T19:08:19.816Z,11.15
2023-03-07T19:11:13.183Z,9.93
2023-03-07T19:14:04.880Z,9.08
2023-03-07T19:16:56.660Z,9.73
2023-03-07T19:19:48.743Z,13.38
2023-03-07T19:22:40.322Z,10.18
2023-03-07T19:25:32.457Z,10.63
2023-03-07T19:28:24.187Z,11.60
2023-03-07T19:31:18.360Z,10.23
2023-03-07T19:34:11.071Z,9.95
2023-03-07T19:37:02.713Z,9.80
2023-03-07T19:39:55.290Z,8.18
2023-03-07T19:42:48.976Z,9.90
2023-03-07T19:45:43.151Z,9.33
2023-03-07T19:48:34.762Z,9.80
2023-03-07T19:51:28.431Z,8.90
2023-03-07T19:54:20.704Z,9.23
2023-03-07T19:57:16.299Z,8.28
2023-03-07T20:00:10.985Z,8.85
2023-03-07T20:03:05.694Z,9.38
2023-03-07T20:05:57.332Z,9.60
2023-03-07T20:08:50.391Z,11.28
2023-03-07T20:11:43.909Z,11.57
2023-03-07T20:14:37.439Z,8.60
2023-03-07T20:17:43.762Z,11.28
2023-03-07T20:20:27.687Z,10.20
2023-03-07T20:23:19.145Z,11.25
2023-03-07T20:26:13.162Z,9.63
2023-03-07T20:29:07.326Z,11.78
2023-03-07T20:31:59.109Z,10.53
2023-03-07T20:34:54.502Z,9.03
2023-03-07T20:37:46.326Z,11.53
2023-03-07T20:40:37.894Z,12.53
2023-03-07T20:43:29.741Z,11.40
2023-03-07T20:46:23.508Z,11.20
2023-03-07T20:49:16.515Z,11.12
2023-03-07T20:52:08.697Z,10.65
2023-03-07T20:55:00.997Z,10.93
2023-03-07T20:57:52.959Z,9.78
2023-03-07T21:00:44.548Z,9.23
2023-03-07T21:03:35.917Z,10.00
2023-03-07T21:06:27.530Z,10.25
2023-03-07T21:09:21.566Z,9.30
2023-03-07T21:12:19.732Z,9.38
2023-03-07T21:15:13.261Z,10.00
2023-03-07T21:18:05.231Z,9.88
2023-03-07T21:20:58.402Z,11.53
2023-03-07T21:23:50.463Z,13.35
2023-03-07T21:26:42.120Z,14.85
2023-03-07T21:29:33.778Z,14.83
2023-03-07T21:32:25.319Z,14.63
2023-03-07T21:35:17.544Z,15.40
2023-03-07T21:38:08.953Z,14.13
2023-03-07T21:41:01.020Z,16.32
2023-03-07T21:43:53.095Z,15.48
2023-03-07T21:46:45.388Z,13.70
2023-03-07T21:49:37.151Z,11.25
2023-03-07T21:52:31.029Z,11.43
2023-03-07T21:55:24.566Z,12.80
2023-03-07T21:58:16.142Z,12.53
2023-03-07T22:01:14.149Z,11.50
2023-03-07T22:04:05.827Z,13.22
2023-03-07T22:06:57.903Z,15.30
2023-03-07T22:09:49.537Z,12.90
2023-03-07T22:12:41.169Z,14.55
2023-03-07T22:15:32.817Z,13.70
2023-03-07T22:18:24.509Z,11.68
2023-03-07T22:21:17.569Z,13.28
2023-03-07T22:24:09.634Z,13.93
2023-03-07T22:27:01.192Z,15.80
2023-03-07T22:29:52.973Z,15.72
2023-03-07T22:32:47.153Z,18.27
2023-03-07T22:35:39.167Z,15.08
2023-03-07T22:38:31.043Z,16.50
2023-03-07T22:41:22.549Z,14.47
2023-03-07T22:44:18.240Z,16.20
2023-03-07T22:47:10.831Z,18.30
2023-03-07T22:50:06.236Z,15.43
2023-03-07T22:52:58.066Z,15.98
2023-03-07T22:55:49.710Z,16.73
2023-03-07T22:58:41.044Z,17.57
2023-03-07T23:01:33.377Z,17.05
2023-03-07T23:04:25.173Z,15.93
2023-03-07T23:07:17.633Z,15.93
2023-03-07T23:10:11.024Z,19.02
2023-03-07T23:13:02.941Z,16.40
2023-03-07T23:15:54.397Z,16.30
2023-03-07T23:18:47.299Z,15.35
2023-03-07T23:21:39.190Z,17.10
2023-03-07T23:24:30.896Z,18.20
2023-03-07T23:27:22.384Z,17.27
2023-03-07T23:30:15.409Z,15.60
2023-03-07T23:33:07.708Z,15.63
2023-03-07T23:36:02.381Z,16.07
2023-03-07T23:38:53.820Z,16.37
2023-03-07T23:41:45.285Z,15.58
2023-03-07T23:44:36.839Z,16.20
2023-03-07T23:47:28.734Z,15.98
2023-03-07T23:50:21.816Z,15.83
2023-03-07T23:55:54.183Z,16.57
2023-03-07T23:58:47.702Z,16.62
